createdAt,value
2018-10-05T00:02:07.098Z,10.10
2018-10-05T00:04:36.989Z,10.10
2018-10-05T00:07:06.426Z,10.00
2018-10-05T00:09:36.084Z,10.10
2018-10-05T00:12:05.812Z,10.00
2018-10-05T00:14:35.526Z,10.00
2018-10-05T00:17:05.199Z,10.00
2018-10-05T00:19:34.963Z,10.00
2018-10-05T00:22:04.715Z,10.10
2018-10-05T00:24:34.537Z,10.00
2018-10-05T00:27:04.169Z,10.00
2018-10-05T00:29:33.871Z,10.00
2018-10-05T00:32:03.525Z,10.00
2018-10-05T00:34:33.311Z,9.90
2018-10-05T00:37:03.820Z,9.90
2018-10-05T00:39:33.413Z,9.90
2018-10-05T00:42:02.958Z,10.00
2018-10-05T00:44:33.040Z,9.90
2018-10-05T00:47:02.855Z,9.90
2018-10-05T00:49:32.626Z,9.80
2018-10-05T00:52:02.187Z,9.80
2018-10-05T00:54:31.750Z,9.80
2018-10-05T00:57:01.326Z,9.80
2018-10-05T00:59:31.220Z,9.80
2018-10-05T01:02:00.862Z,9.80
2018-10-05T01:04:30.651Z,9.80
2018-10-05T01:07:00.359Z,9.70
2018-10-05T01:09:30.059Z,9.70
2018-10-05T01:11:59.755Z,9.70
2018-10-05T01:14:29.491Z,9.60
2018-10-05T01:16:59.370Z,9.60
2018-10-05T01:19:29.124Z,9.60
2018-10-05T01:21:58.666Z,9.70
2018-10-05T01:24:28.110Z,9.70
2018-10-05T01:26:57.649Z,9.70
2018-10-05T01:29:27.193Z,9.60
2018-10-05T01:31:56.874Z,9.60
2018-10-05T01:34:26.460Z,9.60
2018-10-05T01:36:56.108Z,9.60
2018-10-05T01:39:25.885Z,9.60
2018-10-05T01:41:55.559Z,9.60
2018-10-05T01:44:25.234Z,9.50
2018-10-05T01:46:54.966Z,9.50
2018-10-05T01:49:24.708Z,9.40
2018-10-05T01:51:54.373Z,9.30
2018-10-05T01:54:24.519Z,9.40
2018-10-05T01:56:54.029Z,9.40
2018-10-05T01:59:23.563Z,9.50
2018-10-05T02:01:53.198Z,9.50
2018-10-05T02:04:22.761Z,9.50
2018-10-05T02:06:52.470Z,9.50
2018-10-05T02:09:21.888Z,9.60
2018-10-05T02:11:51.427Z,9.60
2018-10-05T02:14:21.208Z,9.50
2018-10-05T02:16:50.860Z,9.50
2018-10-05T02:19:20.448Z,9.50
2018-10-05T02:21:50.197Z,9.50
2018-10-05T02:24:19.987Z,9.50
2018-10-05T02:26:49.580Z,9.40
2018-10-05T02:29:19.143Z,9.50
2018-10-05T02:31:48.672Z,9.40
2018-10-05T02:34:18.055Z,9.40
2018-10-05T02:36:47.615Z,9.40
2018-10-05T02:39:17.325Z,9.30
2018-10-05T02:41:47.058Z,9.20
2018-10-05T02:44:16.756Z,9.10
2018-10-05T02:46:46.521Z,9.10
2018-10-05T02:49:16.036Z,9.10
2018-10-05T02:51:45.753Z,9.10
2018-10-05T02:54:15.467Z,9.10
2018-10-05T02:56:45.198Z,9.10
2018-10-05T02:59:14.891Z,9.00
2018-10-05T03:01:55.407Z,9.00
2018-10-05T03:04:24.991Z,9.00
2018-10-05T03:06:54.592Z,9.00
2018-10-05T03:09:24.071Z,8.90
2018-10-05T03:11:53.652Z,8.90
2018-10-05T03:14:23.235Z,8.90
2018-10-05T03:16:52.898Z,8.90
2018-10-05T03:19:22.512Z,9.00
2018-10-05T03:21:52.142Z,8.90
2018-10-05T03:24:21.626Z,8.80
2018-10-05T03:26:51.216Z,8.70
2018-10-05T03:29:20.908Z,8.70
2018-10-05T03:31:50.430Z,8.70
2018-10-05T03:34:19.868Z,8.70
2018-10-05T03:36:49.566Z,8.70
2018-10-05T03:39:19.235Z,8.60
2018-10-05T03:41:48.913Z,8.60
2018-10-05T03:44:18.653Z,8.60
2018-10-05T03:46:48.988Z,8.60
2018-10-05T03:49:19.410Z,8.60
2018-10-05T03:51:48.954Z,8.50
2018-10-05T03:54:19.027Z,8.50
2018-10-05T03:56:48.833Z,8.50
2018-10-05T03:59:18.550Z,8.60
2018-10-05T04:01:49.099Z,8.60
2018-10-05T04:04:18.831Z,8.50
2018-10-05T04:06:48.540Z,8.50
2018-10-05T04:09:18.163Z,8.40
2018-10-05T04:11:47.950Z,8.30
2018-10-05T04:14:17.702Z,8.30
2018-10-05T04:16:47.611Z,8.30
2018-10-05T04:19:17.368Z,8.30
2018-10-05T04:21:47.323Z,8.20
2018-10-05T04:24:17.299Z,8.30
2018-10-05T04:26:47.074Z,8.30
2018-10-05T04:29:16.670Z,8.20
2018-10-05T04:31:46.349Z,8.20
2018-10-05T04:34:16.056Z,8.20
2018-10-05T04:36:45.725Z,8.20
2018-10-05T04:39:15.406Z,8.30
2018-10-05T04:41:45.035Z,8.30
2018-10-05T04:44:14.679Z,8.30
2018-10-05T04:46:44.396Z,8.30
2018-10-05T04:49:14.186Z,8.40
2018-10-05T04:51:43.914Z,8.30
2018-10-05T04:54:13.677Z,8.30
2018-10-05T04:56:43.506Z,8.30
2018-10-05T04:59:12.890Z,8.20
2018-10-05T05:01:42.619Z,8.30
2018-10-05T05:04:12.419Z,8.40
2018-10-05T05:06:42.112Z,8.40
2018-10-05T05:09:11.578Z,8.40
2018-10-05T05:11:41.252Z,8.30
2018-10-05T05:14:10.837Z,8.20
2018-10-05T05:16:40.579Z,8.20
2018-10-05T05:19:10.351Z,8.10
2018-10-05T05:21:39.974Z,8.00
2018-10-05T05:24:09.525Z,7.90
2018-10-05T05:26:39.147Z,7.80
2018-10-05T05:29:08.931Z,7.80
2018-10-05T05:31:38.629Z,7.80
2018-10-05T05:34:08.264Z,7.90
2018-10-05T05:36:38.071Z,7.90
2018-10-05T05:39:08.503Z,7.80
2018-10-05T05:41:38.258Z,8.00
2018-10-05T05:44:07.855Z,8.10
2018-10-05T05:46:37.967Z,8.00
2018-10-05T05:49:07.707Z,8.00
2018-10-05T05:51:37.539Z,8.10
2018-10-05T05:54:07.389Z,8.20
2018-10-05T05:56:36.995Z,8.20
2018-10-05T05:59:06.783Z,8.20
2018-10-05T06:01:36.457Z,8.20
2018-10-05T06:04:06.069Z,8.20
2018-10-05T06:06:35.627Z,8.20
2018-10-05T06:09:08.183Z,8.20
2018-10-05T06:11:37.897Z,8.20
2018-10-05T06:14:07.799Z,8.10
2018-10-05T06:16:37.509Z,8.10
2018-10-05T06:19:07.094Z,8.20
2018-10-05T06:21:36.910Z,8.10
2018-10-05T06:24:06.506Z,8.20
2018-10-05T06:26:36.267Z,8.20
2018-10-05T06:29:06.062Z,8.20
2018-10-05T06:31:35.798Z,8.20
2018-10-05T06:34:05.527Z,8.30
2018-10-05T06:36:35.226Z,8.30
2018-10-05T06:39:06.068Z,8.40
2018-10-05T06:41:35.483Z,8.40
2018-10-05T06:44:05.122Z,8.40
2018-10-05T06:46:34.837Z,8.50
2018-10-05T06:49:04.540Z,8.60
2018-10-05T06:51:34.078Z,8.60
2018-10-05T06:54:03.761Z,8.60
2018-10-05T06:56:33.459Z,8.70
2018-10-05T06:59:03.190Z,8.80
2018-10-05T07:01:32.820Z,8.90
2018-10-05T07:04:02.382Z,8.90
2018-10-05T07:06:32.023Z,8.90
2018-10-05T07:09:01.727Z,9.00
2018-10-05T07:11:31.371Z,9.00
2018-10-05T07:14:01.155Z,9.00
2018-10-05T07:16:30.706Z,9.00
2018-10-05T07:19:00.315Z,9.00
2018-10-05T07:21:30.291Z,9.00
2018-10-05T07:24:00.127Z,9.00
2018-10-05T07:26:29.906Z,9.10
2018-10-05T07:28:59.702Z,9.20
2018-10-05T07:31:29.451Z,9.30
2018-10-05T07:33:59.082Z,9.40
2018-10-05T07:36:28.744Z,9.40
2018-10-05T07:38:58.315Z,9.50
2018-10-05T07:41:27.897Z,9.60
2018-10-05T07:43:57.604Z,9.60
2018-10-05T07:46:27.165Z,9.60
2018-10-05T07:48:56.796Z,9.70
2018-10-05T07:51:26.571Z,9.70
2018-10-05T07:53:56.215Z,9.80
2018-10-05T07:56:25.916Z,9.80
2018-10-05T07:58:55.640Z,9.90
2018-10-05T08:01:25.147Z,9.90
2018-10-05T08:03:54.870Z,10.00
2018-10-05T08:06:24.598Z,10.00
2018-10-05T08:08:54.176Z,9.90
2018-10-05T08:11:24.055Z,9.90
2018-10-05T08:13:53.731Z,10.00
2018-10-05T08:16:23.403Z,10.00
2018-10-05T08:18:53.015Z,10.10
2018-10-05T08:21:22.593Z,10.10
2018-10-05T08:23:52.262Z,10.20
2018-10-05T08:26:21.944Z,10.20
2018-10-05T08:28:51.752Z,10.20
2018-10-05T08:31:21.724Z,10.30
2018-10-05T08:33:51.534Z,10.40
2018-10-05T08:36:21.018Z,10.40
2018-10-05T08:38:50.791Z,10.40
2018-10-05T08:41:20.555Z,10.40
2018-10-05T08:43:50.243Z,10.50
2018-10-05T08:46:19.903Z,10.50
2018-10-05T08:48:49.605Z,10.50
2018-10-05T08:51:19.366Z,10.60
2018-10-05T08:53:51.295Z,10.60
2018-10-05T08:56:21.430Z,10.60
2018-10-05T08:58:51.116Z,10.70
2018-10-05T09:01:20.911Z,10.70
2018-10-05T09:03:50.427Z,10.80
2018-10-05T09:06:20.400Z,10.80
2018-10-05T09:08:50.490Z,10.80
2018-10-05T09:11:20.371Z,10.90
2018-10-05T09:13:50.276Z,10.90
2018-10-05T09:16:20.366Z,10.90
2018-10-05T09:18:50.194Z,10.90
2018-10-05T09:21:20.041Z,10.90
2018-10-05T09:23:49.614Z,11.00
2018-10-05T09:26:19.594Z,11.00
2018-10-05T09:28:49.534Z,11.00
2018-10-05T09:31:19.220Z,11.00
2018-10-05T09:33:48.961Z,11.10
2018-10-05T09:36:18.868Z,11.10
2018-10-05T09:38:48.790Z,11.20
2018-10-05T09:41:18.479Z,11.30
2018-10-05T09:43:48.222Z,11.40
2018-10-05T09:46:18.134Z,11.40
2018-10-05T09:48:48.378Z,11.40
2018-10-05T09:51:18.424Z,11.50
2018-10-05T09:53:48.344Z,11.50
2018-10-05T09:56:18.227Z,11.60
2018-10-05T09:58:48.172Z,11.60
2018-10-05T10:01:22.965Z,11.70
2018-10-05T10:03:52.722Z,11.70
2018-10-05T10:06:22.371Z,11.80
2018-10-05T10:08:52.032Z,11.90
2018-10-05T10:11:21.794Z,11.90
2018-10-05T10:13:51.545Z,12.00
2018-10-05T10:16:21.180Z,12.00
2018-10-05T10:18:50.661Z,12.10
2018-10-05T10:21:20.215Z,12.20
2018-10-05T10:23:49.898Z,12.20
2018-10-05T10:26:19.474Z,12.30
2018-10-05T10:28:49.372Z,12.30
2018-10-05T10:31:18.962Z,12.30
2018-10-05T10:33:48.751Z,12.40
2018-10-05T10:36:18.732Z,12.40
2018-10-05T10:38:48.939Z,12.40
2018-10-05T10:41:18.663Z,12.40
2018-10-05T10:43:48.334Z,12.50
2018-10-05T10:46:17.987Z,12.50
2018-10-05T10:48:47.558Z,12.50
2018-10-05T10:51:17.161Z,12.50
2018-10-05T10:53:46.936Z,12.50
2018-10-05T10:56:16.687Z,12.60
2018-10-05T10:58:46.504Z,12.60
2018-10-05T11:01:16.215Z,12.60
2018-10-05T11:03:45.671Z,12.70
2018-10-05T11:06:15.187Z,12.70
2018-10-05T11:08:44.913Z,12.70
2018-10-05T11:11:14.734Z,12.70
2018-10-05T11:13:44.221Z,12.70
2018-10-05T11:16:13.973Z,12.80
2018-10-05T11:18:43.645Z,12.80
2018-10-05T11:21:13.181Z,12.80
2018-10-05T11:23:42.890Z,12.80
2018-10-05T11:26:12.504Z,12.90
2018-10-05T11:28:42.149Z,12.80
2018-10-05T11:31:11.687Z,12.90
2018-10-05T11:33:41.206Z,12.90
2018-10-05T11:36:10.850Z,12.90
2018-10-05T11:38:40.452Z,12.90
2018-10-05T11:41:10.193Z,12.90
2018-10-05T11:43:39.982Z,12.90
2018-10-05T11:46:10.155Z,12.90
2018-10-05T11:48:39.702Z,13.00
2018-10-05T11:51:09.288Z,13.00
2018-10-05T11:53:39.000Z,13.00
2018-10-05T11:56:08.566Z,13.00
2018-10-05T11:58:38.027Z,13.00
2018-10-05T12:01:07.618Z,13.00
2018-10-05T12:03:37.506Z,13.00
2018-10-05T12:06:07.428Z,13.00
2018-10-05T12:08:37.199Z,13.00
2018-10-05T12:11:07.030Z,13.10
2018-10-05T12:13:36.464Z,13.10
2018-10-05T12:16:06.470Z,13.10
2018-10-05T12:18:36.441Z,13.20
2018-10-05T12:21:07.655Z,13.20
2018-10-05T12:23:37.338Z,13.20
2018-10-05T12:26:07.023Z,13.20
2018-10-05T12:28:37.343Z,13.30
2018-10-05T12:31:07.232Z,13.30
2018-10-05T12:33:37.234Z,13.30
2018-10-05T12:36:07.654Z,13.30
2018-10-05T12:38:38.092Z,13.30
2018-10-05T12:41:08.022Z,13.30
2018-10-05T12:43:38.378Z,13.30
2018-10-05T12:46:08.286Z,13.30
2018-10-05T12:48:38.097Z,13.30
2018-10-05T12:51:07.728Z,13.30
2018-10-05T12:53:37.679Z,13.30
2018-10-05T12:56:08.141Z,13.30
2018-10-05T12:58:37.967Z,13.30
2018-10-05T13:01:07.844Z,13.30
2018-10-05T13:03:38.276Z,13.30
2018-10-05T13:06:08.791Z,13.40
2018-10-05T13:08:38.736Z,13.40
2018-10-05T13:11:09.010Z,13.40
2018-10-05T13:13:39.175Z,13.40
2018-10-05T13:16:09.023Z,13.40
2018-10-05T13:18:39.106Z,13.40
2018-10-05T13:21:08.821Z,13.40
2018-10-05T13:23:38.523Z,13.40
2018-10-05T13:26:09.330Z,13.40
2018-10-05T13:28:38.931Z,13.40
2018-10-05T13:31:08.586Z,13.40
2018-10-05T13:33:39.542Z,13.40
2018-10-05T13:36:09.272Z,13.40
2018-10-05T13:38:39.340Z,13.40
2018-10-05T13:41:09.230Z,13.40
2018-10-05T13:43:38.982Z,13.40
2018-10-05T13:46:08.561Z,13.40
2018-10-05T13:48:38.172Z,13.40
2018-10-05T13:51:07.930Z,13.40
2018-10-05T13:53:37.500Z,13.40
2018-10-05T13:56:07.196Z,13.40
2018-10-05T13:58:36.945Z,13.40
2018-10-05T14:01:06.660Z,13.40
2018-10-05T14:03:36.326Z,13.40
2018-10-05T14:06:05.858Z,13.40
2018-10-05T14:08:35.366Z,13.40
2018-10-05T14:11:04.982Z,13.40
2018-10-05T14:13:34.681Z,13.50
2018-10-05T14:16:05.083Z,13.50
2018-10-05T14:18:34.682Z,13.50
2018-10-05T14:21:04.267Z,13.40
2018-10-05T14:23:34.011Z,13.50
2018-10-05T14:26:03.658Z,13.40
2018-10-05T14:28:33.151Z,13.40
2018-10-05T14:31:02.942Z,13.50
2018-10-05T14:33:32.596Z,13.50
2018-10-05T14:36:02.086Z,13.50
2018-10-05T14:38:31.695Z,13.50
2018-10-05T14:41:01.334Z,13.50
2018-10-05T14:43:31.006Z,13.50
2018-10-05T14:46:00.607Z,13.50
2018-10-05T14:48:30.381Z,13.50
2018-10-05T14:50:59.939Z,13.50
2018-10-05T14:53:29.450Z,13.50
2018-10-05T14:55:59.158Z,13.50
2018-10-05T14:58:28.816Z,13.50
2018-10-05T15:00:58.463Z,13.50
2018-10-05T15:03:28.020Z,13.50
2018-10-05T15:05:57.795Z,13.50
2018-10-05T15:08:27.378Z,13.60
2018-10-05T15:10:57.068Z,13.50
2018-10-05T15:13:26.656Z,13.50
2018-10-05T15:15:56.350Z,13.50
2018-10-05T15:18:26.090Z,13.60
2018-10-05T15:20:55.975Z,13.60
2018-10-05T15:23:25.702Z,13.60
2018-10-05T15:25:55.468Z,13.60
2018-10-05T15:28:25.143Z,13.60
2018-10-05T15:30:54.959Z,13.60
2018-10-05T15:33:24.491Z,13.60
2018-10-05T15:35:54.108Z,13.60
2018-10-05T15:38:23.818Z,13.60
2018-10-05T15:40:53.405Z,13.60
2018-10-05T15:43:22.972Z,13.60
2018-10-05T15:45:56.072Z,13.70
2018-10-05T15:48:25.854Z,13.60
2018-10-05T15:50:55.619Z,13.70
2018-10-05T15:53:25.247Z,13.60
2018-10-05T15:55:55.076Z,13.70
2018-10-05T15:58:24.666Z,13.70
2018-10-05T16:00:54.392Z,13.70
2018-10-05T16:03:24.210Z,13.70
2018-10-05T16:05:53.841Z,13.70
2018-10-05T16:08:23.500Z,13.70
2018-10-05T16:10:53.249Z,13.70
2018-10-05T16:13:22.943Z,13.70
2018-10-05T16:15:52.377Z,13.70
2018-10-05T16:18:22.130Z,13.70
2018-10-05T16:20:51.691Z,13.70
2018-10-05T16:23:21.445Z,13.70
2018-10-05T16:25:50.887Z,13.70
2018-10-05T16:28:20.875Z,13.70
2018-10-05T16:30:50.740Z,13.70
2018-10-05T16:33:20.539Z,13.70
2018-10-05T16:35:50.599Z,13.70
2018-10-05T16:38:20.618Z,13.70
2018-10-05T16:40:50.312Z,13.70
2018-10-05T16:43:20.237Z,13.70
2018-10-05T16:45:49.984Z,13.70
2018-10-05T16:48:19.690Z,13.70
2018-10-05T16:50:49.270Z,13.70
2018-10-05T16:53:19.136Z,13.70
2018-10-05T16:55:49.155Z,13.70
2018-10-05T16:58:18.817Z,13.60
2018-10-05T17:00:48.519Z,13.60
2018-10-05T17:03:18.501Z,13.60
2018-10-05T17:05:48.202Z,13.60
2018-10-05T17:08:18.008Z,13.60
2018-10-05T17:10:47.743Z,13.50
2018-10-05T17:13:17.386Z,13.50
2018-10-05T17:15:47.191Z,13.50
2018-10-05T17:18:16.861Z,13.50
2018-10-05T17:20:47.248Z,13.50
2018-10-05T17:23:17.361Z,13.50
2018-10-05T17:25:47.346Z,13.50
2018-10-05T17:28:17.240Z,13.40
2018-10-05T17:30:47.384Z,13.40
2018-10-05T17:33:16.844Z,13.40
2018-10-05T17:35:46.463Z,13.40
2018-10-05T17:38:16.046Z,13.30
2018-10-05T17:40:45.813Z,13.30
2018-10-05T17:43:15.757Z,13.30
2018-10-05T17:45:45.505Z,13.40
2018-10-05T17:48:15.187Z,13.30
2018-10-05T17:50:44.751Z,13.30
2018-10-05T17:53:14.478Z,13.30
2018-10-05T17:55:44.488Z,13.30
2018-10-05T17:58:14.199Z,13.30
2018-10-05T18:00:43.934Z,13.30
2018-10-05T18:03:13.692Z,13.30
2018-10-05T18:05:43.382Z,13.20
2018-10-05T18:08:13.135Z,13.20
2018-10-05T18:10:42.770Z,13.20
2018-10-05T18:13:12.397Z,13.20
2018-10-05T18:15:42.159Z,13.20
2018-10-05T18:18:11.675Z,13.20
2018-10-05T18:20:41.354Z,13.20
2018-10-05T18:23:11.198Z,13.20
2018-10-05T18:25:40.995Z,13.10
2018-10-05T18:28:10.665Z,13.20
2018-10-05T18:30:40.423Z,13.10
2018-10-05T18:33:10.317Z,13.10
2018-10-05T18:35:39.859Z,13.10
2018-10-05T18:38:09.600Z,13.10
2018-10-05T18:40:39.100Z,13.10
2018-10-05T18:43:08.809Z,13.10
2018-10-05T18:45:38.360Z,13.10
2018-10-05T18:48:08.082Z,13.10
2018-10-05T18:50:37.662Z,13.10
2018-10-05T18:53:07.383Z,13.00
2018-10-05T18:55:40.630Z,13.00
2018-10-05T18:58:10.195Z,13.00
2018-10-05T19:00:39.811Z,13.00
2018-10-05T19:03:09.342Z,13.00
2018-10-05T19:05:39.075Z,13.00
2018-10-05T19:08:08.878Z,13.00
2018-10-05T19:10:38.544Z,13.00
2018-10-05T19:13:08.173Z,13.00
2018-10-05T19:15:37.979Z,13.00
2018-10-05T19:18:07.701Z,12.90
2018-10-05T19:20:37.366Z,12.90
2018-10-05T19:23:07.127Z,12.90
2018-10-05T19:25:38.131Z,12.90
2018-10-05T19:28:07.745Z,12.90
2018-10-05T19:30:37.343Z,12.90
2018-10-05T19:33:07.067Z,12.90
2018-10-05T19:35:36.568Z,12.90
2018-10-05T19:38:06.354Z,12.90
2018-10-05T19:40:35.976Z,12.90
2018-10-05T19:43:05.737Z,12.90
2018-10-05T19:45:35.478Z,12.90
2018-10-05T19:48:05.009Z,12.90
2018-10-05T19:50:34.767Z,12.90
2018-10-05T19:53:04.434Z,12.90
2018-10-05T19:55:34.167Z,12.90
2018-10-05T19:58:03.830Z,12.90
2018-10-05T20:00:33.611Z,12.90
2018-10-05T20:03:03.423Z,12.90
2018-10-05T20:05:33.194Z,12.90
2018-10-05T20:08:02.932Z,12.90
2018-10-05T20:10:32.670Z,12.90
2018-10-05T20:13:02.585Z,12.90
2018-10-05T20:15:32.543Z,12.90
2018-10-05T20:18:02.311Z,12.90
2018-10-05T20:20:31.863Z,12.90
2018-10-05T20:23:01.508Z,12.80
2018-10-05T20:25:31.667Z,12.80
2018-10-05T20:28:01.462Z,12.80
2018-10-05T20:30:31.082Z,12.80
2018-10-05T20:33:00.921Z,12.80
2018-10-05T20:35:30.468Z,12.80
2018-10-05T20:38:00.108Z,12.70
2018-10-05T20:40:29.900Z,12.70
2018-10-05T20:42:59.487Z,12.70
2018-10-05T20:45:29.375Z,12.70
2018-10-05T20:47:59.179Z,12.70
2018-10-05T20:50:28.819Z,12.70
2018-10-05T20:52:58.203Z,12.70
2018-10-05T20:55:27.787Z,12.70
2018-10-05T20:57:57.327Z,12.70
2018-10-05T21:00:27.013Z,12.70
2018-10-05T21:02:56.723Z,12.70
2018-10-05T21:05:26.389Z,12.70
2018-10-05T21:07:55.978Z,12.60
2018-10-05T21:10:25.682Z,12.60
2018-10-05T21:12:55.378Z,12.60
2018-10-05T21:15:25.234Z,12.60
2018-10-05T21:17:54.841Z,12.60
2018-10-05T21:20:24.583Z,12.60
2018-10-05T21:22:54.220Z,12.60
2018-10-05T21:25:23.822Z,12.60
2018-10-05T21:27:53.483Z,12.60
2018-10-05T21:30:23.059Z,12.60
2018-10-05T21:32:52.745Z,12.60
2018-10-05T21:35:22.263Z,12.60
2018-10-05T21:37:52.256Z,12.60
2018-10-05T21:40:21.965Z,12.50
2018-10-05T21:42:51.604Z,12.50
2018-10-05T21:45:21.477Z,12.50
2018-10-05T21:47:51.150Z,12.50
2018-10-05T21:50:20.834Z,12.50
2018-10-05T21:52:50.386Z,12.60
2018-10-05T21:55:20.183Z,12.50
2018-10-05T21:57:49.841Z,12.50
2018-10-05T22:00:19.617Z,12.50
2018-10-05T22:02:49.275Z,12.50
2018-10-05T22:05:18.754Z,12.50
2018-10-05T22:07:48.403Z,12.50
2018-10-05T22:10:18.043Z,12.50
2018-10-05T22:12:47.733Z,12.40
2018-10-05T22:15:17.577Z,12.40
2018-10-05T22:17:46.977Z,12.50
2018-10-05T22:20:16.616Z,12.40
2018-10-05T22:22:46.358Z,12.40
2018-10-05T22:25:16.070Z,12.40
2018-10-05T22:27:45.835Z,12.40
2018-10-05T22:30:15.642Z,12.40
2018-10-05T22:32:45.401Z,12.40
2018-10-05T22:35:14.993Z,12.40
2018-10-05T22:37:44.408Z,12.40
2018-10-05T22:40:13.998Z,12.40
2018-10-05T22:42:43.734Z,12.40
2018-10-05T22:45:13.375Z,12.40
2018-10-05T22:47:43.033Z,12.40
2018-10-05T22:50:12.791Z,12.40
2018-10-05T22:52:42.435Z,12.40
2018-10-05T22:55:12.226Z,12.40
2018-10-05T22:57:41.850Z,12.30
2018-10-05T23:00:11.383Z,12.30
2018-10-05T23:02:41.085Z,12.30
2018-10-05T23:05:10.770Z,12.30
2018-10-05T23:07:40.432Z,12.30
2018-10-05T23:10:10.077Z,12.30
2018-10-05T23:12:39.574Z,12.20
2018-10-05T23:15:09.202Z,12.20
2018-10-05T23:17:38.971Z,12.20
2018-10-05T23:20:08.602Z,12.20
2018-10-05T23:22:38.290Z,12.20
2018-10-05T23:25:07.952Z,12.20
2018-10-05T23:27:37.536Z,12.20
2018-10-05T23:30:07.368Z,12.20
2018-10-05T23:32:37.119Z,12.10
2018-10-05T23:35:06.807Z,12.10
2018-10-05T23:37:36.478Z,12.00
2018-10-05T23:40:06.062Z,12.00
2018-10-05T23:42:35.755Z,12.10
2018-10-05T23:45:05.587Z,12.10
2018-10-05T23:47:35.322Z,12.10
2018-10-05T23:50:05.206Z,12.10
2018-10-05T23:52:37.202Z,12.10
2018-10-05T23:55:07.096Z,12.10
2018-10-05T23:57:37.518Z,12.10
